createdAt,value
2022-12-31T00:01:36.865Z,87.06
2022-12-31T00:04:04.624Z,87.16
2022-12-31T00:06:35.263Z,86.66
2022-12-31T00:09:05.364Z,85.68
2022-12-31T00:11:35.550Z,85.67
2022-12-31T00:14:03.460Z,84.84
2022-12-31T00:16:33.012Z,85.62
2022-12-31T00:19:01.743Z,83.42
2022-12-31T00:21:31.259Z,84.60
2022-12-31T00:23:59.100Z,85.01
2022-12-31T00:26:30.031Z,84.79
2022-12-31T00:29:00.872Z,84.00
2022-12-31T00:31:30.144Z,84.82
2022-12-31T00:33:58.493Z,83.46
2022-12-31T00:36:28.597Z,84.25
2022-12-31T00:38:57.882Z,83.55
2022-12-31T00:41:26.847Z,83.67
2022-12-31T00:43:54.717Z,83.43
2022-12-31T00:46:23.686Z,83.21
2022-12-31T00:48:51.556Z,82.85
2022-12-31T00:51:21.656Z,82.86
2022-12-31T00:53:49.188Z,82.53
2022-12-31T00:56:18.842Z,82.19
2022-12-31T00:58:46.816Z,82.10
2022-12-31T01:01:18.812Z,82.04
2022-12-31T01:03:49.221Z,82.37
2022-12-31T01:06:17.668Z,81.79
2022-12-31T01:08:45.739Z,81.63
2022-12-31T01:11:29.592Z,81.82
2022-12-31T01:13:59.707Z,81.22
2022-12-31T01:16:30.396Z,81.66
2022-12-31T01:19:01.233Z,82.03
2022-12-31T01:21:29.269Z,81.79
2022-12-31T01:23:56.814Z,81.44
2022-12-31T01:26:24.237Z,81.49
2022-12-31T01:28:51.748Z,80.90
2022-12-31T01:31:21.009Z,80.67
2022-12-31T01:33:49.342Z,81.04
2022-12-31T01:36:25.301Z,81.57
2022-12-31T01:38:54.160Z,80.88
2022-12-31T01:41:23.286Z,80.83
2022-12-31T01:43:54.222Z,81.47
2022-12-31T01:46:28.353Z,81.09
2022-12-31T01:49:00.099Z,81.16
2022-12-31T01:51:31.448Z,81.25
2022-12-31T01:53:59.986Z,80.87
2022-12-31T01:56:27.583Z,81.04
2022-12-31T01:58:57.666Z,81.40
2022-12-31T02:01:29.124Z,80.73
2022-12-31T02:03:57.664Z,81.27
2022-12-31T02:06:29.894Z,81.27
2022-12-31T02:08:59.229Z,81.43
2022-12-31T02:11:29.623Z,81.08
2022-12-31T02:14:01.310Z,80.84
2022-12-31T02:16:36.739Z,81.53
2022-12-31T02:19:27.744Z,81.45
2022-12-31T02:22:02.900Z,80.92
2022-12-31T02:25:03.478Z,81.81
2022-12-31T02:27:46.065Z,81.34
2022-12-31T02:30:17.681Z,80.96
2022-12-31T02:33:04.692Z,81.56
2022-12-31T02:35:35.008Z,81.18
2022-12-31T02:38:07.704Z,81.07
2022-12-31T02:40:37.497Z,81.48
2022-12-31T02:43:05.135Z,81.39
2022-12-31T02:45:38.535Z,81.18
2022-12-31T02:48:31.443Z,81.19
2022-12-31T02:51:09.970Z,81.00
2022-12-31T02:54:12.525Z,81.53
2022-12-31T02:56:46.415Z,80.94
2022-12-31T02:59:44.438Z,80.65
2022-12-31T03:02:19.720Z,80.91
2022-12-31T03:04:52.234Z,80.64
2022-12-31T03:07:22.931Z,80.66
2022-12-31T03:09:51.348Z,80.47
2022-12-31T03:12:39.455Z,80.59
2022-12-31T03:15:19.762Z,80.69
2022-12-31T03:17:51.549Z,80.96
2022-12-31T03:20:37.434Z,81.26
2022-12-31T03:23:06.425Z,80.88
2022-12-31T03:25:35.793Z,80.30
2022-12-31T03:28:05.451Z,80.49
2022-12-31T03:30:34.703Z,80.77
2022-12-31T03:33:04.370Z,80.76
2022-12-31T03:35:35.309Z,80.06
2022-12-31T03:38:03.553Z,80.39
2022-12-31T03:40:32.407Z,80.13
2022-12-31T03:42:59.841Z,79.79
2022-12-31T03:45:27.644Z,80.33
2022-12-31T03:47:55.236Z,80.03
2022-12-31T03:50:24.039Z,79.90
2022-12-31T03:52:52.062Z,79.71
2022-12-31T03:55:19.693Z,80.52
2022-12-31T03:57:47.441Z,79.78
2022-12-31T04:00:17.461Z,79.70
2022-12-31T04:02:45.123Z,80.18
2022-12-31T04:05:13.181Z,80.61
2022-12-31T04:07:42.724Z,79.57
2022-12-31T04:10:12.028Z,79.92
2022-12-31T04:12:40.039Z,79.84
2022-12-31T04:15:09.399Z,79.86
2022-12-31T04:17:36.978Z,80.23
2022-12-31T04:20:05.086Z,79.69
2022-12-31T04:22:32.881Z,79.61
2022-12-31T04:25:01.677Z,79.40
2022-12-31T04:27:29.162Z,79.64
2022-12-31T04:29:56.556Z,79.55
2022-12-31T04:32:24.884Z,79.25
2022-12-31T04:34:52.331Z,79.85
2022-12-31T04:37:19.823Z,79.16
2022-12-31T04:39:47.310Z,79.78
2022-12-31T04:42:16.099Z,79.13
2022-12-31T04:44:43.620Z,79.10
2022-12-31T04:47:11.333Z,79.21
2022-12-31T04:49:38.782Z,79.40
2022-12-31T04:52:06.438Z,79.46
2022-12-31T04:54:33.905Z,79.19
2022-12-31T04:57:01.453Z,79.36
2022-12-31T04:59:30.273Z,79.93
2022-12-31T05:01:57.908Z,79.75
2022-12-31T05:04:26.585Z,79.75
2022-12-31T05:06:54.381Z,80.09
2022-12-31T05:09:24.041Z,79.98
2022-12-31T05:11:51.726Z,79.65
2022-12-31T05:14:20.345Z,80.38
2022-12-31T05:16:49.184Z,79.52
2022-12-31T05:19:17.022Z,79.54
2022-12-31T05:22:04.728Z,79.42
2022-12-31T05:24:32.602Z,80.09
2022-12-31T05:27:00.004Z,79.73
2022-12-31T05:29:27.622Z,79.38
2022-12-31T05:31:56.339Z,79.98
2022-12-31T05:34:23.838Z,79.60
2022-12-31T05:36:51.369Z,81.99
2022-12-31T05:39:18.884Z,83.66
2022-12-31T05:41:46.458Z,84.14
2022-12-31T05:44:14.097Z,87.40
2022-12-31T05:46:42.023Z,89.96
2022-12-31T05:49:10.973Z,93.65
2022-12-31T05:51:38.420Z,93.04
2022-12-31T05:54:06.039Z,94.63
2022-12-31T05:56:33.709Z,95.30
2022-12-31T05:59:01.428Z,96.27
2022-12-31T06:01:28.965Z,95.42
2022-12-31T06:03:56.583Z,95.68
2022-12-31T06:06:25.369Z,95.95
2022-12-31T06:08:53.393Z,96.12
2022-12-31T06:11:20.851Z,95.94
2022-12-31T06:13:48.355Z,95.25
2022-12-31T06:16:15.830Z,95.43
2022-12-31T06:18:43.347Z,94.77
2022-12-31T06:21:10.832Z,93.76
2022-12-31T06:23:41.251Z,93.83
2022-12-31T06:26:09.076Z,93.60
2022-12-31T06:28:36.737Z,94.57
2022-12-31T06:31:06.163Z,94.55
2022-12-31T06:33:34.263Z,91.80
2022-12-31T06:36:04.507Z,93.14
2022-12-31T06:38:34.269Z,91.63
2022-12-31T06:41:05.583Z,90.36
2022-12-31T06:43:33.176Z,91.05
2022-12-31T06:46:01.413Z,90.75
2022-12-31T06:48:28.989Z,91.20
2022-12-31T06:50:56.474Z,89.71
2022-12-31T06:53:23.976Z,90.43
2022-12-31T06:55:51.975Z,89.17
2022-12-31T06:58:21.237Z,89.42
2022-12-31T07:00:54.142Z,89.92
2022-12-31T07:03:35.444Z,89.03
2022-12-31T07:06:08.094Z,90.18
2022-12-31T07:08:46.226Z,88.47
2022-12-31T07:11:21.675Z,88.28
2022-12-31T07:14:00.178Z,86.88
2022-12-31T07:16:49.126Z,87.91
2022-12-31T07:19:26.012Z,84.87
2022-12-31T07:21:56.540Z,88.18
2022-12-31T07:24:24.562Z,85.34
2022-12-31T07:27:06.065Z,84.65
2022-12-31T07:29:49.218Z,85.58
2022-12-31T07:32:29.403Z,85.97
2022-12-31T07:35:04.409Z,85.12
2022-12-31T07:37:41.031Z,84.13
2022-12-31T07:40:16.467Z,83.56
2022-12-31T07:42:58.669Z,84.83
2022-12-31T07:45:32.507Z,83.32
2022-12-31T07:48:02.834Z,82.92
2022-12-31T07:50:32.029Z,81.41
2022-12-31T07:53:00.178Z,81.70
2022-12-31T07:55:27.665Z,82.25
2022-12-31T07:58:00.676Z,81.68
2022-12-31T08:00:32.067Z,79.96
2022-12-31T08:03:15.650Z,79.06
2022-12-31T08:05:51.972Z,80.01
2022-12-31T08:08:35.058Z,80.47
2022-12-31T08:11:15.987Z,79.53
2022-12-31T08:13:43.857Z,79.11
2022-12-31T08:16:15.074Z,78.35
2022-12-31T08:18:43.137Z,77.60
2022-12-31T08:21:19.997Z,78.27
2022-12-31T08:23:55.628Z,78.40
2022-12-31T08:26:32.239Z,77.85
2022-12-31T08:29:15.175Z,77.10
2022-12-31T08:31:52.069Z,77.19
2022-12-31T08:34:26.913Z,76.60
2022-12-31T08:37:01.303Z,76.51
2022-12-31T08:39:41.908Z,76.25
2022-12-31T08:42:18.560Z,77.01
2022-12-31T08:44:53.592Z,76.48
2022-12-31T08:47:38.152Z,75.82
2022-12-31T08:50:07.639Z,76.27
2022-12-31T08:52:35.632Z,75.47
2022-12-31T08:55:04.007Z,75.85
2022-12-31T08:57:40.192Z,74.94
2022-12-31T09:00:12.360Z,74.57
2022-12-31T09:02:53.332Z,75.05
2022-12-31T09:05:25.524Z,74.63
2022-12-31T09:08:04.805Z,74.32
2022-12-31T09:10:38.812Z,74.55
2022-12-31T09:13:16.230Z,74.15
2022-12-31T09:15:49.700Z,73.84
2022-12-31T09:18:19.473Z,73.05
2022-12-31T09:20:47.428Z,72.91
2022-12-31T09:23:15.300Z,73.67
2022-12-31T09:25:50.196Z,73.53
2022-12-31T09:28:32.761Z,72.93
2022-12-31T09:31:06.878Z,73.21
2022-12-31T09:33:43.116Z,72.15
2022-12-31T09:36:19.019Z,72.52
2022-12-31T09:39:00.769Z,72.11
2022-12-31T09:45:37.135Z,71.95
2022-12-31T09:48:51.294Z,71.18
2022-12-31T09:51:28.765Z,70.92
2022-12-31T09:54:17.845Z,70.47
2022-12-31T09:56:55.567Z,70.63
2022-12-31T09:59:36.617Z,70.60
2022-12-31T10:02:25.479Z,70.40
2022-12-31T10:05:05.292Z,69.75
2022-12-31T10:07:52.040Z,69.73
2022-12-31T10:10:28.086Z,69.06
2022-12-31T10:13:30.114Z,68.75
2022-12-31T10:16:31.997Z,68.16
2022-12-31T10:19:38.359Z,67.82
2022-12-31T10:22:19.615Z,68.14
2022-12-31T10:24:59.761Z,67.93
2022-12-31T10:27:44.761Z,67.04
2022-12-31T10:30:18.406Z,65.61
2022-12-31T10:32:59.904Z,64.23
2022-12-31T10:35:43.101Z,64.16
2022-12-31T10:38:25.545Z,64.75
2022-12-31T10:41:26.308Z,65.02
2022-12-31T10:44:25.932Z,65.45
2022-12-31T10:47:28.895Z,65.50
2022-12-31T10:50:27.608Z,65.68
2022-12-31T10:53:33.923Z,65.82
2022-12-31T10:56:43.533Z,66.40
2022-12-31T10:59:42.340Z,67.14
2022-12-31T11:02:34.688Z,67.36
2022-12-31T11:05:24.445Z,67.06
2022-12-31T11:08:03.879Z,67.46
2022-12-31T11:10:57.292Z,67.72
2022-12-31T11:13:56.191Z,67.10
2022-12-31T11:17:01.139Z,66.95
2022-12-31T11:19:40.459Z,67.66
2022-12-31T11:22:25.534Z,67.32
2022-12-31T11:25:22.730Z,67.84
2022-12-31T11:28:38.879Z,67.74
2022-12-31T11:31:28.938Z,67.48
2022-12-31T11:34:19.279Z,67.72
2022-12-31T11:37:07.054Z,67.76
2022-12-31T11:39:45.999Z,66.99
2022-12-31T11:42:23.238Z,67.73
2022-12-31T11:44:56.316Z,67.44
2022-12-31T11:48:27.880Z,67.20
2022-12-31T11:50:40.555Z,67.56
2022-12-31T11:53:26.040Z,66.98
2022-12-31T11:56:06.653Z,66.82
2022-12-31T11:58:34.635Z,66.85
2022-12-31T12:01:09.997Z,66.40
2022-12-31T12:03:43.247Z,66.75
2022-12-31T12:06:13.343Z,66.27
2022-12-31T12:08:42.007Z,65.96
2022-12-31T12:11:19.241Z,65.60
2022-12-31T12:13:47.559Z,66.83
2022-12-31T12:16:15.985Z,66.08
2022-12-31T12:18:47.737Z,66.38
2022-12-31T12:21:17.891Z,66.15
2022-12-31T12:23:56.310Z,65.73
2022-12-31T12:26:29.151Z,65.44
2022-12-31T12:28:56.654Z,65.12
2022-12-31T12:31:26.802Z,64.69
2022-12-31T12:33:55.682Z,65.14
2022-12-31T12:36:23.287Z,65.23
2022-12-31T12:39:02.236Z,65.21
2022-12-31T12:41:29.727Z,65.44
2022-12-31T12:44:07.790Z,64.88
2022-12-31T12:46:44.660Z,64.17
2022-12-31T12:49:23.197Z,64.20
2022-12-31T12:56:12.990Z,64.04
2022-12-31T12:58:53.923Z,63.72
2022-12-31T13:01:29.790Z,63.61
2022-12-31T13:04:33.842Z,63.29
2022-12-31T13:07:17.325Z,63.18
2022-12-31T13:10:01.209Z,63.18
2022-12-31T13:13:05.264Z,63.08
2022-12-31T13:15:29.980Z,63.21
2022-12-31T13:18:08.794Z,62.80
2022-12-31T13:20:42.291Z,63.08
2022-12-31T13:23:18.693Z,62.63
2022-12-31T13:26:00.871Z,63.07
2022-12-31T13:28:29.375Z,62.39
2022-12-31T13:31:06.484Z,62.14
2022-12-31T13:33:39.190Z,62.18
2022-12-31T13:36:10.400Z,62.94
2022-12-31T13:38:42.990Z,62.32
2022-12-31T13:41:16.085Z,62.32
2022-12-31T13:43:51.248Z,62.71
2022-12-31T13:46:24.489Z,62.24
2022-12-31T13:48:55.618Z,61.90
2022-12-31T13:51:30.254Z,61.80
2022-12-31T13:54:04.554Z,62.03
2022-12-31T13:56:37.806Z,61.77
2022-12-31T13:59:11.568Z,61.90
2022-12-31T14:01:43.827Z,62.04
2022-12-31T14:04:16.287Z,62.16
2022-12-31T14:06:51.193Z,61.83
2022-12-31T14:09:25.855Z,62.00
2022-12-31T14:12:07.542Z,62.51
2022-12-31T14:14:44.560Z,62.84
2022-12-31T14:17:20.454Z,62.48
2022-12-31T14:19:57.052Z,61.75
2022-12-31T14:22:34.122Z,62.16
2022-12-31T14:25:04.849Z,62.68
2022-12-31T14:27:37.572Z,62.34
2022-12-31T14:30:07.498Z,62.36
2022-12-31T14:33:10.704Z,62.41
2022-12-31T14:36:05.206Z,62.75
2022-12-31T14:38:46.343Z,63.07
2022-12-31T14:41:28.793Z,62.79
2022-12-31T14:44:09.800Z,62.74
2022-12-31T14:46:44.136Z,63.12
2022-12-31T14:49:34.418Z,62.66
2022-12-31T14:52:09.408Z,62.71
2022-12-31T14:54:38.506Z,63.31
2022-12-31T14:57:24.340Z,63.16
2022-12-31T14:59:55.157Z,63.40
2022-12-31T15:02:31.509Z,63.21
2022-12-31T15:05:17.194Z,63.16
2022-12-31T15:08:00.226Z,62.88
2022-12-31T15:10:42.835Z,63.17
2022-12-31T15:13:27.080Z,63.41
2022-12-31T15:16:19.308Z,62.77
2022-12-31T15:19:25.457Z,62.96
2022-12-31T15:22:06.065Z,62.91
2022-12-31T15:24:33.869Z,62.62
2022-12-31T15:27:04.169Z,63.15
2022-12-31T15:29:42.154Z,62.49
2022-12-31T15:32:19.670Z,62.83
2022-12-31T15:34:47.183Z,62.98
2022-12-31T15:37:32.373Z,62.72
2022-12-31T15:40:25.549Z,62.70
2022-12-31T15:43:03.442Z,62.78
2022-12-31T15:45:39.396Z,62.90
2022-12-31T15:48:15.586Z,63.11
2022-12-31T15:50:54.491Z,62.97
2022-12-31T15:53:29.554Z,62.79
2022-12-31T15:56:00.304Z,63.01
2022-12-31T15:58:32.665Z,62.96
2022-12-31T16:01:21.125Z,62.92
2022-12-31T16:04:00.799Z,63.09
2022-12-31T16:06:31.928Z,63.09
2022-12-31T16:09:05.206Z,63.18
2022-12-31T16:11:45.679Z,63.31
2022-12-31T16:14:35.811Z,63.62
2022-12-31T16:17:34.454Z,63.75
2022-12-31T16:20:28.813Z,63.64
2022-12-31T16:23:18.374Z,63.46
2022-12-31T16:25:49.322Z,63.75
2022-12-31T16:28:22.389Z,63.71
2022-12-31T16:31:00.667Z,63.54
2022-12-31T16:33:28.752Z,63.59
2022-12-31T16:35:59.857Z,63.46
2022-12-31T16:38:33.302Z,63.74
2022-12-31T16:41:15.878Z,63.47
2022-12-31T16:43:54.553Z,63.38
2022-12-31T16:49:36.661Z,63.28
2022-12-31T16:55:56.962Z,62.96
2022-12-31T16:58:58.884Z,62.60
2022-12-31T17:01:34.545Z,62.54
2022-12-31T17:15:59.363Z,61.57
2022-12-31T17:18:30.532Z,61.52
2022-12-31T17:21:07.779Z,61.26
2022-12-31T17:23:39.612Z,61.57
2022-12-31T17:26:11.739Z,61.12
2022-12-31T17:28:45.649Z,61.21
2022-12-31T17:31:36.520Z,61.31
2022-12-31T17:34:25.104Z,61.19
2022-12-31T17:37:00.426Z,60.76
2022-12-31T17:39:44.401Z,61.09
2022-12-31T17:42:14.258Z,60.58
2022-12-31T17:44:47.247Z,60.44
2022-12-31T17:47:28.333Z,60.71
2022-12-31T17:49:56.509Z,60.45
2022-12-31T17:52:26.742Z,60.31
2022-12-31T17:54:54.213Z,60.59
2022-12-31T17:57:28.963Z,60.34
2022-12-31T18:00:01.193Z,60.25
2022-12-31T18:02:30.495Z,60.58
2022-12-31T18:04:59.008Z,60.48
2022-12-31T18:07:28.204Z,60.19
2022-12-31T18:09:57.210Z,59.87
2022-12-31T18:12:25.793Z,59.95
2022-12-31T18:14:53.573Z,60.73
2022-12-31T18:17:23.698Z,59.96
2022-12-31T18:20:08.929Z,60.60
2022-12-31T18:22:37.593Z,59.81
2022-12-31T18:25:07.653Z,59.80
2022-12-31T18:27:35.951Z,59.95
2022-12-31T18:30:05.544Z,60.11
2022-12-31T18:32:36.429Z,60.17
2022-12-31T18:35:05.065Z,60.29
2022-12-31T18:37:37.248Z,60.38
2022-12-31T18:40:05.565Z,60.54
2022-12-31T18:42:35.290Z,60.79
2022-12-31T18:45:03.152Z,61.07
2022-12-31T18:47:37.283Z,61.36
2022-12-31T18:50:08.273Z,61.60
2022-12-31T18:52:35.759Z,61.63
2022-12-31T18:55:03.410Z,61.70
2022-12-31T18:57:31.200Z,61.86
2022-12-31T18:59:58.912Z,62.01
2022-12-31T19:02:26.505Z,62.09
2022-12-31T19:04:54.327Z,62.41
2022-12-31T19:07:27.398Z,62.47
2022-12-31T19:09:58.467Z,63.05
2022-12-31T19:12:26.651Z,63.12
2022-12-31T19:14:54.100Z,62.96
2022-12-31T19:17:21.753Z,62.93
2022-12-31T19:19:49.185Z,63.08
2022-12-31T19:22:16.987Z,62.94
2022-12-31T19:24:45.761Z,63.25
2022-12-31T19:27:13.795Z,63.16
2022-12-31T19:29:41.316Z,63.15
2022-12-31T19:32:09.193Z,62.89
2022-12-31T19:34:37.025Z,63.01
2022-12-31T19:37:05.164Z,63.24
2022-12-31T19:39:32.709Z,63.14
2022-12-31T19:42:01.911Z,63.13
2022-12-31T19:44:29.665Z,63.14
2022-12-31T19:46:58.398Z,63.09
2022-12-31T19:49:26.035Z,62.89
2022-12-31T19:51:53.789Z,63.26
2022-12-31T19:54:21.229Z,63.25
2022-12-31T19:56:48.975Z,63.13
2022-12-31T19:59:18.248Z,63.20
2022-12-31T20:01:46.003Z,63.35
2022-12-31T20:04:13.700Z,62.80
2022-12-31T20:06:41.273Z,63.11
2022-12-31T20:09:08.778Z,63.25
2022-12-31T20:11:36.294Z,63.08
2022-12-31T20:14:03.930Z,63.24
2022-12-31T20:16:34.067Z,63.11
2022-12-31T20:19:01.684Z,62.71
2022-12-31T20:21:30.220Z,62.91
2022-12-31T20:23:57.869Z,62.65
2022-12-31T20:26:26.940Z,62.93
2022-12-31T20:28:54.745Z,62.73
2022-12-31T20:31:25.299Z,62.63
2022-12-31T20:33:54.969Z,62.59
2022-12-31T20:36:23.549Z,62.76
2022-12-31T20:38:51.280Z,62.50
2022-12-31T20:41:22.702Z,62.38
2022-12-31T20:43:50.876Z,62.36
2022-12-31T20:46:21.176Z,62.17
2022-12-31T20:48:51.049Z,62.28
2022-12-31T20:51:21.522Z,62.35
2022-12-31T20:53:50.470Z,62.19
2022-12-31T20:56:19.393Z,62.01
2022-12-31T20:58:48.572Z,62.01
2022-12-31T21:01:17.820Z,61.94
2022-12-31T21:06:36.544Z,61.97
2022-12-31T21:09:09.018Z,61.91
2022-12-31T21:11:55.256Z,61.65
2022-12-31T21:14:22.986Z,61.97
2022-12-31T21:16:50.546Z,61.39
2022-12-31T21:19:18.298Z,61.60
2022-12-31T21:21:48.905Z,61.67
2022-12-31T21:24:23.348Z,61.08
2022-12-31T21:26:51.695Z,61.25
2022-12-31T21:29:19.322Z,61.37
2022-12-31T21:31:46.864Z,61.05
2022-12-31T21:34:14.359Z,61.48
2022-12-31T21:36:42.086Z,60.88
2022-12-31T21:39:10.872Z,60.72
2022-12-31T21:41:53.650Z,60.45
2022-12-31T21:44:23.022Z,60.46
2022-12-31T21:47:24.944Z,60.96
2022-12-31T21:49:38.128Z,60.02
2022-12-31T21:52:19.993Z,60.20
2022-12-31T21:55:06.797Z,59.84
2022-12-31T21:57:51.973Z,60.60
2022-12-31T22:00:42.825Z,60.24
2022-12-31T22:03:31.787Z,60.56
2022-12-31T22:06:01.106Z,60.58
2022-12-31T22:08:30.596Z,60.31
2022-12-31T22:10:59.747Z,60.24
2022-12-31T22:13:27.627Z,60.36
2022-12-31T22:16:03.820Z,60.44
2022-12-31T22:18:33.999Z,60.08
2022-12-31T22:21:03.050Z,60.10
2022-12-31T22:23:31.347Z,60.35
2022-12-31T22:26:00.791Z,59.97
2022-12-31T22:28:44.181Z,60.41
2022-12-31T22:31:14.461Z,59.62
2022-12-31T22:33:42.342Z,60.21
2022-12-31T22:36:12.940Z,59.79
2022-12-31T22:38:40.738Z,60.10
2022-12-31T22:41:11.998Z,60.16
2022-12-31T22:43:41.667Z,59.73
2022-12-31T22:46:12.001Z,59.31
2022-12-31T22:48:39.892Z,59.92
2022-12-31T22:51:15.098Z,59.26
2022-12-31T22:53:43.565Z,59.17
2022-12-31T22:56:15.684Z,59.75
2022-12-31T22:58:43.606Z,59.36
2022-12-31T23:01:18.992Z,59.11
2022-12-31T23:03:47.972Z,59.51
2022-12-31T23:06:15.688Z,58.90
2022-12-31T23:09:03.293Z,58.69
2022-12-31T23:11:31.758Z,58.45
2022-12-31T23:14:16.922Z,59.20
2022-12-31T23:17:30.436Z,59.18
2022-12-31T23:20:07.718Z,58.15
2022-12-31T23:22:53.399Z,58.29
2022-12-31T23:25:20.969Z,58.54
2022-12-31T23:27:50.088Z,58.48
2022-12-31T23:30:17.736Z,58.03
2022-12-31T23:32:45.289Z,58.20
2022-12-31T23:35:13.921Z,58.35
2022-12-31T23:37:44.517Z,57.75
2022-12-31T23:40:20.723Z,57.71
2022-12-31T23:42:50.834Z,57.69
2022-12-31T23:45:18.486Z,58.20
2022-12-31T23:47:46.319Z,58.24
2022-12-31T23:50:14.307Z,57.68
2022-12-31T23:52:41.833Z,57.73
2022-12-31T23:55:09.714Z,58.01
2022-12-31T23:57:37.237Z,57.27
